sensor_id;sensor_type;location;lat;lon;timestamp;pressure;altitude;pressure_sealevel;temperature;humidity
67457;BME280;54319;52.038;4.640;2023-02-13T00:00:16;103964.63;;;6.10;81.54
67457;BME280;54319;52.038;4.640;2023-02-13T00:02:44;103965.50;;;6.10;81.47
67457;BME280;54319;52.038;4.640;2023-02-13T00:05:11;103966.50;;;6.09;81.46
67457;BME280;54319;52.038;4.640;2023-02-13T00:07:38;103962.13;;;6.06;81.51
67457;BME280;54319;52.038;4.640;2023-02-13T00:10:07;103948.44;;;5.95;81.78
67457;BME280;54319;52.038;4.640;2023-02-13T00:12:34;103952.56;;;6.01;82.09
67457;BME280;54319;52.038;4.640;2023-02-13T00:15:03;103928.44;;;5.83;81.96
67457;BME280;54319;52.038;4.640;2023-02-13T00:17:31;103966.66;;;6.06;82.10
67457;BME280;54319;52.038;4.640;2023-02-13T00:19:59;103958.53;;;6.06;82.05
67457;BME280;54319;52.038;4.640;2023-02-13T00:22:25;103950.16;;;5.96;81.81
67457;BME280;54319;52.038;4.640;2023-02-13T00:24:53;103963.19;;;6.04;82.14
67457;BME280;54319;52.038;4.640;2023-02-13T00:27:19;103885.78;;;5.59;82.19
67457;BME280;54319;52.038;4.640;2023-02-13T00:29:46;103960.50;;;6.04;82.07
67457;BME280;54319;52.038;4.640;2023-02-13T00:32:14;103956.91;;;6.03;82.33
67457;BME280;54319;52.038;4.640;2023-02-13T00:34:42;103960.50;;;6.04;82.43
67457;BME280;54319;52.038;4.640;2023-02-13T00:37:09;103927.56;;;5.83;82.34
67457;BME280;54319;52.038;4.640;2023-02-13T00:39:36;103957.78;;;6.04;82.44
67457;BME280;54319;52.038;4.640;2023-02-13T00:42:03;103955.19;;;6.02;82.54
67457;BME280;54319;52.038;4.640;2023-02-13T00:44:30;103952.56;;;6.01;82.55
67457;BME280;54319;52.038;4.640;2023-02-13T00:46:57;103945.72;;;5.95;82.25
67457;BME280;54319;52.038;4.640;2023-02-13T00:49:25;103771.06;;;4.80;82.55
67457;BME280;54319;52.038;4.640;2023-02-13T00:51:52;103950.81;;;6.00;82.49
67457;BME280;54319;52.038;4.640;2023-02-13T00:54:20;103942.25;;;5.93;82.67
67457;BME280;54319;52.038;4.640;2023-02-13T00:56:47;103921.16;;;5.84;82.66
67457;BME280;54319;52.038;4.640;2023-02-13T00:59:14;103922.06;;;5.84;82.63
67457;BME280;54319;52.038;4.640;2023-02-13T01:01:41;103951.69;;;6.00;82.52
67457;BME280;54319;52.038;4.640;2023-02-13T01:04:10;103901.78;;;5.77;82.63
67457;BME280;54319;52.038;4.640;2023-02-13T01:06:38;103901.00;;;5.75;82.54
67457;BME280;54319;52.038;4.640;2023-02-13T01:09:06;103948.03;;;6.01;82.21
67457;BME280;54319;52.038;4.640;2023-02-13T01:11:32;103901.78;;;5.77;82.34
67457;BME280;54319;52.038;4.640;2023-02-13T01:14:00;103922.38;;;5.92;82.54
67457;BME280;54319;52.038;4.640;2023-02-13T01:16:26;103928.78;;;5.91;82.65
67457;BME280;54319;52.038;4.640;2023-02-13T01:18:54;103924.34;;;5.90;82.57
67457;BME280;54319;52.038;4.640;2023-02-13T01:21:21;103930.00;;;6.00;82.56
67457;BME280;54319;52.038;4.640;2023-02-13T01:23:52;103938.03;;;6.02;82.53
67457;BME280;54319;52.038;4.640;2023-02-13T01:26:21;103935.34;;;6.02;82.45
67457;BME280;54319;52.038;4.640;2023-02-13T01:28:51;103927.19;;;6.02;82.37
67457;BME280;54319;52.038;4.640;2023-02-13T01:31:18;103928.19;;;6.01;82.45
67457;BME280;54319;52.038;4.640;2023-02-13T01:33:45;103851.88;;;5.54;82.46
67457;BME280;54319;52.038;4.640;2023-02-13T01:36:12;103925.56;;;5.99;82.46
67457;BME280;54319;52.038;4.640;2023-02-13T01:38:40;103926.34;;;6.01;82.82
67457;BME280;54319;52.038;4.640;2023-02-13T01:41:08;103922.84;;;5.99;82.88
67457;BME280;54319;52.038;4.640;2023-02-13T01:43:45;103908.97;;;5.91;82.87
67457;BME280;54319;52.038;4.640;2023-02-13T01:46:15;103869.03;;;5.67;82.70
67457;BME280;54319;52.038;4.640;2023-02-13T01:48:45;103921.97;;;5.99;82.95
67457;BME280;54319;52.038;4.640;2023-02-13T01:51:19;103883.03;;;5.74;83.02
67457;BME280;54319;52.038;4.640;2023-02-13T01:53:50;103925.56;;;5.99;82.99
67457;BME280;54319;52.038;4.640;2023-02-13T01:56:22;103921.97;;;5.99;83.11
67457;BME280;54319;52.038;4.640;2023-02-13T01:58:54;103927.38;;;5.99;82.83
67457;BME280;54319;52.038;4.640;2023-02-13T02:01:24;103920.13;;;5.99;82.60
67457;BME280;54319;52.038;4.640;2023-02-13T02:03:55;103922.84;;;5.99;82.99
67457;BME280;54319;52.038;4.640;2023-02-13T02:06:26;103930.09;;;5.99;83.14
67457;BME280;54319;52.038;4.640;2023-02-13T02:08:56;103921.97;;;5.99;82.73
67457;BME280;54319;52.038;4.640;2023-02-13T02:11:31;103855.16;;;5.59;82.98
67457;BME280;54319;52.038;4.640;2023-02-13T02:14:01;103921.97;;;5.99;83.28
67457;BME280;54319;52.038;4.640;2023-02-13T02:16:28;103924.78;;;5.97;82.99
67457;BME280;54319;52.038;4.640;2023-02-13T02:18:57;103917.72;;;5.94;82.96
67457;BME280;54319;52.038;4.640;2023-02-13T02:21:48;103891.38;;;5.84;82.95
67457;BME280;54319;52.038;4.640;2023-02-13T02:25:03;103921.97;;;5.99;82.88
67457;BME280;54319;52.038;4.640;2023-02-13T02:28:00;103896.69;;;5.85;82.59
67457;BME280;54319;52.038;4.640;2023-02-13T02:31:08;103922.94;;;5.98;82.91
67457;BME280;54319;52.038;4.640;2023-02-13T02:33:55;103919.25;;;5.99;82.85
67457;BME280;54319;52.038;4.640;2023-02-13T02:36:38;103918.28;;;6.00;82.82
67457;BME280;54319;52.038;4.640;2023-02-13T02:39:13;103897.47;;;5.87;82.79
67457;BME280;54319;52.038;4.640;2023-02-13T02:41:53;103916.53;;;5.99;82.91
67457;BME280;54319;52.038;4.640;2023-02-13T02:44:35;103806.13;;;5.36;82.79
67457;BME280;54319;52.038;4.640;2023-02-13T02:47:20;103902.03;;;6.00;82.16
67457;BME280;54319;52.038;4.640;2023-02-13T02:53:06;103904.72;;;6.00;82.63
67457;BME280;54319;52.038;4.640;2023-02-13T02:55:41;103896.59;;;6.00;82.74
67457;BME280;54319;52.038;4.640;2023-02-13T02:58:14;103867.31;;;5.79;82.64
67457;BME280;54319;52.038;4.640;2023-02-13T03:01:01;103858.53;;;5.75;82.55
67457;BME280;54319;52.038;4.640;2023-02-13T03:03:48;103898.53;;;5.98;82.82
67457;BME280;54319;52.038;4.640;2023-02-13T03:06:37;103904.84;;;5.98;83.01
67457;BME280;54319;52.038;4.640;2023-02-13T03:09:10;103903.97;;;5.98;83.10
67457;BME280;54319;52.038;4.640;2023-02-13T03:11:56;103902.22;;;5.97;83.24
67457;BME280;54319;52.038;4.640;2023-02-13T03:14:42;103901.38;;;5.96;83.34
67457;BME280;54319;52.038;4.640;2023-02-13T03:17:13;103880.44;;;5.85;83.32
67457;BME280;54319;52.038;4.640;2023-02-13T03:20:09;103877.06;;;5.82;83.17
67457;BME280;54319;52.038;4.640;2023-02-13T03:23:09;103879.25;;;5.89;83.37
67457;BME280;54319;52.038;4.640;2023-02-13T03:25:59;103857.75;;;5.73;83.29
67457;BME280;54319;52.038;4.640;2023-02-13T03:28:42;103886.09;;;5.95;83.01
67457;BME280;54319;52.038;4.640;2023-02-13T03:31:33;103895.97;;;5.96;83.34
67457;BME280;54319;52.038;4.640;2023-02-13T03:34:04;103859.19;;;5.79;83.33
67457;BME280;54319;52.038;4.640;2023-02-13T03:36:45;103897.91;;;5.94;83.54
67457;BME280;54319;52.038;4.640;2023-02-13T03:39:43;103896.06;;;5.94;83.49
67457;BME280;54319;52.038;4.640;2023-02-13T03:42:17;103895.50;;;5.89;83.49
67457;BME280;54319;52.038;4.640;2023-02-13T03:44:52;103889.03;;;5.92;83.75
67457;BME280;54319;52.038;4.640;2023-02-13T03:47:34;103884.56;;;5.91;83.49
67457;BME280;54319;52.038;4.640;2023-02-13T03:50:03;103856.16;;;5.71;83.57
67457;BME280;54319;52.038;4.640;2023-02-13T03:52:34;103844.22;;;5.73;83.21
67457;BME280;54319;52.038;4.640;2023-02-13T03:55:06;103862.31;;;5.86;83.52
67457;BME280;54319;52.038;4.640;2023-02-13T03:57:57;103877.31;;;5.91;83.52
67457;BME280;54319;52.038;4.640;2023-02-13T04:00:45;103869.06;;;5.93;83.38
67457;BME280;54319;52.038;4.640;2023-02-13T04:03:19;103876.31;;;5.92;83.43
67457;BME280;54319;52.038;4.640;2023-02-13T04:05:49;103873.53;;;5.94;83.49
67457;BME280;54319;52.038;4.640;2023-02-13T04:08:17;103843.25;;;5.74;83.34
67457;BME280;54319;52.038;4.640;2023-02-13T04:10:50;103828.09;;;5.72;83.48
67457;BME280;54319;52.038;4.640;2023-02-13T04:13:31;103866.25;;;5.94;83.57
67457;BME280;54319;52.038;4.640;2023-02-13T04:16:02;103866.38;;;5.93;83.22
67457;BME280;54319;52.038;4.640;2023-02-13T04:18:32;103863.41;;;5.83;83.25
67457;BME280;54319;52.038;4.640;2023-02-13T04:21:01;103863.75;;;5.91;83.34
67457;BME280;54319;52.038;4.640;2023-02-13T04:23:29;103849.97;;;5.82;83.27
67457;BME280;54319;52.038;4.640;2023-02-13T04:25:59;103867.22;;;5.93;83.41
67457;BME280;54319;52.038;4.640;2023-02-13T04:28:27;103869.94;;;5.93;83.41
67457;BME280;54319;52.038;4.640;2023-02-13T04:30:54;103867.34;;;5.92;83.42
67457;BME280;54319;52.038;4.640;2023-02-13T04:33:21;103870.91;;;5.92;83.24
67457;BME280;54319;52.038;4.640;2023-02-13T04:35:48;103875.47;;;5.92;83.50
67457;BME280;54319;52.038;4.640;2023-02-13T04:38:15;103869.16;;;5.91;83.63
67457;BME280;54319;52.038;4.640;2023-02-13T04:40:42;103872.75;;;5.92;83.72
67457;BME280;54319;52.038;4.640;2023-02-13T04:43:10;103873.84;;;5.89;83.78
67457;BME280;54319;52.038;4.640;2023-02-13T04:45:37;103879.03;;;5.92;83.82
67457;BME280;54319;52.038;4.640;2023-02-13T04:48:04;103818.72;;;5.50;83.91
67457;BME280;54319;52.038;4.640;2023-02-13T04:50:32;103871.13;;;5.89;83.70
67457;BME280;54319;52.038;4.640;2023-02-13T04:52:59;103865.81;;;5.88;83.93
67457;BME280;54319;52.038;4.640;2023-02-13T04:55:26;103872.09;;;5.88;84.08
67457;BME280;54319;52.038;4.640;2023-02-13T04:57:54;103816.25;;;5.60;83.81
67457;BME280;54319;52.038;4.640;2023-02-13T05:00:24;103868.41;;;5.89;83.80
67457;BME280;54319;52.038;4.640;2023-02-13T05:02:53;103841.00;;;5.81;83.85
67457;BME280;54319;52.038;4.640;2023-02-13T05:05:20;103835.03;;;5.76;83.72
67457;BME280;54319;52.038;4.640;2023-02-13T05:07:47;103852.28;;;5.88;84.06
67457;BME280;54319;52.038;4.640;2023-02-13T05:10:13;103834.81;;;5.79;84.03
67457;BME280;54319;52.038;4.640;2023-02-13T05:12:41;103860.28;;;5.89;83.94
67457;BME280;54319;52.038;4.640;2023-02-13T05:15:08;103852.16;;;5.89;84.05
67457;BME280;54319;52.038;4.640;2023-02-13T05:17:37;103833.06;;;5.78;84.24
67457;BME280;54319;52.038;4.640;2023-02-13T05:20:04;103847.72;;;5.88;84.25
67457;BME280;54319;52.038;4.640;2023-02-13T05:22:32;103855.09;;;5.86;84.49
67457;BME280;54319;52.038;4.640;2023-02-13T05:25:16;103846.94;;;5.86;84.54
67457;BME280;54319;52.038;4.640;2023-02-13T05:27:43;103856.06;;;5.85;84.44
67457;BME280;54319;52.038;4.640;2023-02-13T05:30:11;103852.38;;;5.86;84.72
67457;BME280;54319;52.038;4.640;2023-02-13T05:32:39;103837.53;;;5.79;84.74
67457;BME280;54319;52.038;4.640;2023-02-13T05:35:07;103857.78;;;5.86;84.79
67457;BME280;54319;52.038;4.640;2023-02-13T05:37:35;103854.09;;;5.87;84.76
67457;BME280;54319;52.038;4.640;2023-02-13T05:40:02;103844.25;;;5.86;84.84
67457;BME280;54319;52.038;4.640;2023-02-13T05:42:30;103823.53;;;5.72;84.78
67457;BME280;54319;52.038;4.640;2023-02-13T05:44:57;103855.84;;;5.88;84.80
67457;BME280;54319;52.038;4.640;2023-02-13T05:47:24;103853.44;;;5.84;84.86
67457;BME280;54319;52.038;4.640;2023-02-13T05:49:53;103855.75;;;5.90;84.81
67457;BME280;54319;52.038;4.640;2023-02-13T05:52:19;103866.69;;;5.88;84.66
67457;BME280;54319;52.038;4.640;2023-02-13T05:54:47;103868.41;;;5.89;84.95
67457;BME280;54319;52.038;4.640;2023-02-13T05:57:13;103858.75;;;5.85;85.02
67457;BME280;54319;52.038;4.640;2023-02-13T05:59:40;103863.00;;;5.89;85.26
67457;BME280;54319;52.038;4.640;2023-02-13T06:02:07;103801.41;;;5.53;85.02
67457;BME280;54319;52.038;4.640;2023-02-13T06:04:34;103867.56;;;5.89;85.28
67457;BME280;54319;52.038;4.640;2023-02-13T06:07:02;103863.00;;;5.89;85.44
67457;BME280;54319;52.038;4.640;2023-02-13T06:09:29;103855.84;;;5.88;85.59
67457;BME280;54319;52.038;4.640;2023-02-13T06:11:56;103858.47;;;5.90;85.21
67457;BME280;54319;52.038;4.640;2023-02-13T06:14:23;103850.41;;;5.88;85.20
67457;BME280;54319;52.038;4.640;2023-02-13T06:16:50;103849.66;;;5.86;85.47
67457;BME280;54319;52.038;4.640;2023-02-13T06:19:17;103856.59;;;5.90;85.41
67457;BME280;54319;52.038;4.640;2023-02-13T06:21:43;103806.81;;;5.65;85.44
67457;BME280;54319;52.038;4.640;2023-02-13T06:24:12;103851.19;;;5.90;85.52
67457;BME280;54319;52.038;4.640;2023-02-13T06:26:38;103813.66;;;5.71;85.40
67457;BME280;54319;52.038;4.640;2023-02-13T06:29:06;103840.66;;;5.86;85.53
67457;BME280;54319;52.038;4.640;2023-02-13T06:31:33;103837.09;;;5.85;85.51
67457;BME280;54319;52.038;4.640;2023-02-13T06:34:01;103841.84;;;5.82;86.07
67457;BME280;54319;52.038;4.640;2023-02-13T06:36:27;103839.34;;;5.78;85.94
67457;BME280;54319;52.038;4.640;2023-02-13T06:38:55;103838.16;;;5.83;86.01
67457;BME280;54319;52.038;4.640;2023-02-13T06:41:24;103841.75;;;5.83;85.84
67457;BME280;54319;52.038;4.640;2023-02-13T06:43:51;103840.00;;;5.82;86.06
67457;BME280;54319;52.038;4.640;2023-02-13T06:46:17;103854.41;;;5.83;86.08
67457;BME280;54319;52.038;4.640;2023-02-13T06:48:45;103853.56;;;5.82;86.30
67457;BME280;54319;52.038;4.640;2023-02-13T06:51:11;103845.53;;;5.80;86.31
67457;BME280;54319;52.038;4.640;2023-02-13T06:53:39;103849.34;;;5.78;86.42
67457;BME280;54319;52.038;4.640;2023-02-13T06:56:05;103850.19;;;5.78;86.41
67457;BME280;54319;52.038;4.640;2023-02-13T06:58:34;103855.59;;;5.78;86.62
67457;BME280;54319;52.038;4.640;2023-02-13T07:01:01;103856.47;;;5.79;86.63
67457;BME280;54319;52.038;4.640;2023-02-13T07:03:28;103875.22;;;5.82;86.38
67457;BME280;54319;52.038;4.640;2023-02-13T07:05:54;103875.22;;;5.82;86.50
67457;BME280;54319;52.038;4.640;2023-02-13T07:08:21;103876.97;;;5.83;86.31
67457;BME280;54319;52.038;4.640;2023-02-13T07:10:48;103874.25;;;5.83;86.56
67457;BME280;54319;52.038;4.640;2023-02-13T07:13:15;103869.59;;;5.85;86.65
67457;BME280;54319;52.038;4.640;2023-02-13T07:15:43;103872.19;;;5.87;86.48
67457;BME280;54319;52.038;4.640;2023-02-13T07:18:11;103873.84;;;5.89;86.52
67457;BME280;54319;52.038;4.640;2023-02-13T07:20:37;103865.59;;;5.78;86.33
67457;BME280;54319;52.038;4.640;2023-02-13T07:23:05;103853.88;;;5.77;87.01
67457;BME280;54319;52.038;4.640;2023-02-13T07:25:33;103876.31;;;5.92;86.66
67457;BME280;54319;52.038;4.640;2023-02-13T07:28:01;103881.44;;;5.97;86.56
67457;BME280;54319;52.038;4.640;2023-02-13T07:30:28;103881.31;;;5.99;86.51
67457;BME280;54319;52.038;4.640;2023-02-13T07:32:59;103879.41;;;6.01;86.56
67457;BME280;54319;52.038;4.640;2023-02-13T07:35:27;103866.03;;;5.98;86.51
67457;BME280;54319;52.038;4.640;2023-02-13T07:37:54;103876.06;;;6.10;86.44
67457;BME280;54319;52.038;4.640;2023-02-13T07:40:21;103883.84;;;6.15;86.42
67457;BME280;54319;52.038;4.640;2023-02-13T07:42:48;103887.09;;;6.20;86.39
67457;BME280;54319;52.038;4.640;2023-02-13T07:45:15;103887.56;;;6.27;86.36
67457;BME280;54319;52.038;4.640;2023-02-13T07:47:42;103882.56;;;6.33;86.33
67457;BME280;54319;52.038;4.640;2023-02-13T07:50:11;103890.88;;;6.43;85.68
67457;BME280;54319;52.038;4.640;2023-02-13T07:52:38;103889.72;;;6.47;85.45
67457;BME280;54319;52.038;4.640;2023-02-13T07:55:06;103882.66;;;6.45;85.08
67457;BME280;54319;52.038;4.640;2023-02-13T07:57:35;103898.63;;;6.49;84.80
67457;BME280;54319;52.038;4.640;2023-02-13T08:00:03;103894.94;;;6.50;84.86
67457;BME280;54319;52.038;4.640;2023-02-13T08:02:31;103877.69;;;6.39;84.70
67457;BME280;54319;52.038;4.640;2023-02-13T08:04:57;103896.31;;;6.43;84.80
67457;BME280;54319;52.038;4.640;2023-02-13T08:07:26;103895.38;;;6.44;84.94
67457;BME280;54319;52.038;4.640;2023-02-13T08:09:54;103899.25;;;6.40;85.04
67457;BME280;54319;52.038;4.640;2023-02-13T08:12:39;103896.00;;;6.35;85.19
67457;BME280;54319;52.038;4.640;2023-02-13T08:15:08;103839.16;;;5.94;85.24
67457;BME280;54319;52.038;4.640;2023-02-13T08:17:37;103907.72;;;6.35;85.42
67457;BME280;54319;52.038;4.640;2023-02-13T08:20:05;103906.84;;;6.35;85.55
67457;BME280;54319;52.038;4.640;2023-02-13T08:22:34;103909.03;;;6.43;85.36
67457;BME280;54319;52.038;4.640;2023-02-13T08:25:02;103910.44;;;6.48;84.87
67457;BME280;54319;52.038;4.640;2023-02-13T08:27:28;103907.94;;;6.45;85.14
67457;BME280;54319;52.038;4.640;2023-02-13T08:29:56;103900.56;;;6.47;85.33
67457;BME280;54319;52.038;4.640;2023-02-13T08:32:23;103906.63;;;6.51;84.85
67457;BME280;54319;52.038;4.640;2023-02-13T08:34:50;103860.44;;;6.27;84.76
67457;BME280;54319;52.038;4.640;2023-02-13T08:37:17;103905.19;;;6.58;84.92
67457;BME280;54319;52.038;4.640;2023-02-13T08:39:45;103905.09;;;6.60;84.42
67457;BME280;54319;52.038;4.640;2023-02-13T08:42:12;103907.06;;;6.58;84.73
67457;BME280;54319;52.038;4.640;2023-02-13T08:44:39;103899.59;;;6.48;84.76
67457;BME280;54319;52.038;4.640;2023-02-13T08:47:06;103898.81;;;6.59;84.58
67457;BME280;54319;52.038;4.640;2023-02-13T08:49:34;103848.16;;;6.34;84.87
67457;BME280;54319;52.038;4.640;2023-02-13T08:52:01;103916.81;;;6.73;84.62
67457;BME280;54319;52.038;4.640;2023-02-13T08:54:30;103911.25;;;6.88;84.06
67457;BME280;54319;52.038;4.640;2023-02-13T08:56:58;103906.69;;;6.88;83.91
67457;BME280;54319;52.038;4.640;2023-02-13T08:59:25;103906.47;;;6.91;83.78
67457;BME280;54319;52.038;4.640;2023-02-13T09:01:52;103905.16;;;6.97;83.82
67457;BME280;54319;52.038;4.640;2023-02-13T09:04:19;103802.50;;;6.41;83.33
67457;BME280;54319;52.038;4.640;2023-02-13T09:06:46;103904.13;;;7.11;82.53
67457;BME280;54319;52.038;4.640;2023-02-13T09:09:13;103910.09;;;7.16;82.84
67457;BME280;54319;52.038;4.640;2023-02-13T09:11:40;103900.81;;;7.19;82.92
67457;BME280;54319;52.038;4.640;2023-02-13T09:14:09;103913.38;;;7.33;82.90
67457;BME280;54319;52.038;4.640;2023-02-13T09:16:35;103913.50;;;7.31;82.50
67457;BME280;54319;52.038;4.640;2023-02-13T09:19:03;103915.75;;;7.37;82.47
67457;BME280;54319;52.038;4.640;2023-02-13T09:21:30;103917.25;;;7.42;81.72
67457;BME280;54319;52.038;4.640;2023-02-13T09:23:57;103916.84;;;7.35;81.78
67457;BME280;54319;52.038;4.640;2023-02-13T09:26:23;103916.31;;;7.54;81.01
67457;BME280;54319;52.038;4.640;2023-02-13T09:28:50;103917.53;;;7.50;81.09
67457;BME280;54319;52.038;4.640;2023-02-13T09:31:19;103910.88;;;7.54;80.98
67457;BME280;54319;52.038;4.640;2023-02-13T09:33:48;103915.81;;;7.49;80.76
67457;BME280;54319;52.038;4.640;2023-02-13T09:36:19;103923.06;;;7.61;80.41
67457;BME280;54319;52.038;4.640;2023-02-13T09:38:47;103914.72;;;7.51;81.01
67457;BME280;54319;52.038;4.640;2023-02-13T09:41:19;103922.81;;;7.64;80.98
67457;BME280;54319;52.038;4.640;2023-02-13T09:43:49;103918.66;;;7.72;80.88
67457;BME280;54319;52.038;4.640;2023-02-13T09:46:20;103914.88;;;7.86;80.76
67457;BME280;54319;52.038;4.640;2023-02-13T09:48:52;103915.34;;;7.79;79.48
67457;BME280;54319;52.038;4.640;2023-02-13T09:51:21;103898.63;;;7.73;80.64
67457;BME280;54319;52.038;4.640;2023-02-13T09:53:52;103914.16;;;7.95;80.07
67457;BME280;54319;52.038;4.640;2023-02-13T09:56:25;103907.09;;;7.92;80.01
67457;BME280;54319;52.038;4.640;2023-02-13T09:59:02;103918.13;;;8.02;79.61
67457;BME280;54319;52.038;4.640;2023-02-13T10:01:38;103910.63;;;8.17;78.64
67457;BME280;54319;52.038;4.640;2023-02-13T10:04:23;103896.53;;;8.23;78.06
67457;BME280;54319;52.038;4.640;2023-02-13T10:06:59;103900.38;;;8.21;78.01
67457;BME280;54319;52.038;4.640;2023-02-13T10:09:39;103913.81;;;8.11;79.09
67457;BME280;54319;52.038;4.640;2023-02-13T10:12:32;103895.53;;;8.24;78.65
67457;BME280;54319;52.038;4.640;2023-02-13T10:15:12;103903.84;;;8.34;78.10
67457;BME280;54319;52.038;4.640;2023-02-13T10:17:44;103865.72;;;8.11;78.32
67457;BME280;54319;52.038;4.640;2023-02-13T10:20:24;103892.13;;;8.57;77.52
67457;BME280;54319;52.038;4.640;2023-02-13T10:22:56;103896.66;;;8.45;77.61
67457;BME280;54319;52.038;4.640;2023-02-13T10:25:27;103887.19;;;8.50;77.88
67457;BME280;54319;52.038;4.640;2023-02-13T10:27:59;103886.69;;;8.68;76.77
67457;BME280;54319;52.038;4.640;2023-02-13T10:30:31;103855.41;;;8.62;75.92
67457;BME280;54319;52.038;4.640;2023-02-13T10:33:05;103893.09;;;8.90;76.20
67457;BME280;54319;52.038;4.640;2023-02-13T10:35:49;103899.78;;;8.97;75.71
67457;BME280;54319;52.038;4.640;2023-02-13T10:38:21;103896.94;;;8.98;75.21
67457;BME280;54319;52.038;4.640;2023-02-13T10:43:50;103895.31;;;8.96;75.11
67457;BME280;54319;52.038;4.640;2023-02-13T10:46:28;103902.56;;;9.18;75.19
67457;BME280;54319;52.038;4.640;2023-02-13T10:49:09;103891.69;;;9.30;74.54
67457;BME280;54319;52.038;4.640;2023-02-13T10:51:44;103898.34;;;9.25;75.67
67457;BME280;54319;52.038;4.640;2023-02-13T10:54:24;103893.19;;;9.11;75.34
67457;BME280;54319;52.038;4.640;2023-02-13T10:57:02;103881.16;;;9.25;75.55
67457;BME280;54319;52.038;4.640;2023-02-13T10:59:50;103888.69;;;9.33;75.05
67457;BME280;54319;52.038;4.640;2023-02-13T11:02:26;103898.41;;;9.47;74.67
67457;BME280;54319;52.038;4.640;2023-02-13T11:04:59;103864.13;;;9.44;73.57
67457;BME280;54319;52.038;4.640;2023-02-13T11:07:28;103893.50;;;9.29;75.62
67457;BME280;54319;52.038;4.640;2023-02-13T11:10:02;103888.63;;;9.44;74.31
67457;BME280;54319;52.038;4.640;2023-02-13T11:12:32;103894.03;;;9.23;75.08
67457;BME280;54319;52.038;4.640;2023-02-13T11:14:59;103886.06;;;9.31;75.01
67457;BME280;54319;52.038;4.640;2023-02-13T11:17:29;103874.56;;;9.60;74.35
67457;BME280;54319;52.038;4.640;2023-02-13T11:20:00;103881.50;;;9.64;74.21
67457;BME280;54319;52.038;4.640;2023-02-13T11:22:32;103873.06;;;9.67;73.54
67457;BME280;54319;52.038;4.640;2023-02-13T11:25:03;103845.41;;;9.39;74.15
67457;BME280;54319;52.038;4.640;2023-02-13T11:27:36;103852.50;;;9.63;74.17
67457;BME280;54319;52.038;4.640;2023-02-13T11:30:05;103858.78;;;9.75;73.45
67457;BME280;54319;52.038;4.640;2023-02-13T11:32:33;103855.25;;;9.84;73.90
67457;BME280;54319;52.038;4.640;2023-02-13T11:35:26;103851.44;;;9.97;72.06
67457;BME280;54319;52.038;4.640;2023-02-13T11:38:11;103840.94;;;9.92;71.51
67457;BME280;54319;52.038;4.640;2023-02-13T11:40:39;103838.06;;;9.94;72.54
67457;BME280;54319;52.038;4.640;2023-02-13T11:43:17;103835.34;;;9.94;72.50
67457;BME280;54319;52.038;4.640;2023-02-13T11:45:44;103842.03;;;10.11;71.79
67457;BME280;54319;52.038;4.640;2023-02-13T11:48:19;103828.47;;;10.21;71.35
67457;BME280;54319;52.038;4.640;2023-02-13T11:50:53;103829.19;;;10.23;71.25
67457;BME280;54319;52.038;4.640;2023-02-13T11:53:23;103835.13;;;10.07;72.15
67457;BME280;54319;52.038;4.640;2023-02-13T11:56:06;103832.25;;;10.30;70.98
67457;BME280;54319;52.038;4.640;2023-02-13T11:58:35;103843.94;;;10.20;71.46
67457;BME280;54319;52.038;4.640;2023-02-13T12:01:23;103830.47;;;10.19;71.16
67457;BME280;54319;52.038;4.640;2023-02-13T12:04:13;103829.69;;;10.38;70.86
67457;BME280;54319;52.038;4.640;2023-02-13T12:06:57;103839.25;;;10.53;70.30
67457;BME280;54319;52.038;4.640;2023-02-13T12:09:25;103832.34;;;10.49;70.96
67457;BME280;54319;52.038;4.640;2023-02-13T12:11:54;103821.50;;;10.38;71.19
67457;BME280;54319;52.038;4.640;2023-02-13T12:14:25;103775.28;;;10.15;70.30
67457;BME280;54319;52.038;4.640;2023-02-13T12:16:55;103825.88;;;10.50;70.35
67457;BME280;54319;52.038;4.640;2023-02-13T12:19:31;103819.44;;;10.61;70.35
67457;BME280;54319;52.038;4.640;2023-02-13T12:22:11;103821.69;;;10.46;70.60
67457;BME280;54319;52.038;4.640;2023-02-13T12:24:56;103810.44;;;10.39;70.26
67457;BME280;54319;52.038;4.640;2023-02-13T12:27:31;103820.78;;;10.36;69.87
67457;BME280;54319;52.038;4.640;2023-02-13T12:30:29;103818.03;;;10.67;69.39
67457;BME280;54319;52.038;4.640;2023-02-13T12:33:08;103784.50;;;10.45;69.75
67457;BME280;54319;52.038;4.640;2023-02-13T12:35:45;103810.81;;;10.56;69.87
67457;BME280;54319;52.038;4.640;2023-02-13T12:38:27;103799.22;;;10.33;70.39
67457;BME280;54319;52.038;4.640;2023-02-13T12:41:14;103801.47;;;10.49;70.97
67457;BME280;54319;52.038;4.640;2023-02-13T12:44:13;103807.38;;;10.54;70.28
67457;BME280;54319;52.038;4.640;2023-02-13T12:46:51;103802.75;;;10.54;70.42
67457;BME280;54319;52.038;4.640;2023-02-13T12:49:39;103772.91;;;10.63;69.13
67457;BME280;54319;52.038;4.640;2023-02-13T12:52:26;103787.28;;;10.75;69.86
67457;BME280;54319;52.038;4.640;2023-02-13T12:55:10;103781.69;;;10.76;69.32
67457;BME280;54319;52.038;4.640;2023-02-13T12:57:51;103782.28;;;10.99;68.76
67457;BME280;54319;52.038;4.640;2023-02-13T13:00:29;103768.91;;;10.96;68.95
67457;BME280;54319;52.038;4.640;2023-02-13T13:03:15;103775.69;;;11.22;68.16
67457;BME280;54319;52.038;4.640;2023-02-13T13:06:03;103786.75;;;11.10;66.99
67457;BME280;54319;52.038;4.640;2023-02-13T13:09:01;103781.44;;;10.99;68.13
67457;BME280;54319;52.038;4.640;2023-02-13T13:11:59;103774.66;;;11.13;67.71
67457;BME280;54319;52.038;4.640;2023-02-13T13:14:38;103771.94;;;11.13;67.98
67457;BME280;54319;52.038;4.640;2023-02-13T13:17:15;103773.66;;;11.14;67.44
67457;BME280;54319;52.038;4.640;2023-02-13T13:19:51;103771.94;;;11.23;67.54
67457;BME280;54319;52.038;4.640;2023-02-13T13:22:27;103770.22;;;11.22;66.94
67457;BME280;54319;52.038;4.640;2023-02-13T13:25:04;103752.38;;;11.27;66.52
67457;BME280;54319;52.038;4.640;2023-02-13T13:27:41;103756.25;;;11.25;65.45
67457;BME280;54319;52.038;4.640;2023-02-13T13:30:15;103739.28;;;11.31;65.41
67457;BME280;54319;52.038;4.640;2023-02-13T13:32:44;103753.69;;;11.13;66.12